KDIK/DIK METAR and TAF weather

Enter ICAO airport designator
Station Type Date Time Source
KDIK METAR 2020/09/22 22:56 UTC NOAA

KDIK 222256Z AUTO 13009KT 10SM CLR 29/03 A2991 RMK AO2 SLP115 T02940033


Station Type Date Time Source
KDIK Decoded METAR 2020/09/22 22:56 UTC NOAA

THEODORE ROOSEVELT REGIONAL, ND, United States (KDIK) 46-48N 102-48W 788M
Sep 22, 2020 - 06:56 PM EDT / 2020.09.22 2256 UTC
Wind: from the SE (130 degrees) at 10 MPH (9 KT):0
Visibility: 10 mile(s):0
Sky conditions: clear
Temperature: 84.9 F (29.4 C)
Dew Point: 37.9 F (3.3 C)
Relative Humidity: 18%
Pressure (altimeter): 29.91 in. Hg (1012 hPa)
ob: KDIK 222256Z AUTO 13009KT 10SM CLR 29/03 A2991 RMK AO2 SLP115 T02940033
cycle: 23

Station Type Date Time Source
KDIK TAF 2020/09/22 18:24 UTC NOAA

TAF KDIK 221722Z 2218/2318 18012KT P6SM SKC
FM230000 14007KT P6SM SKC
FM230800 VRB05KT P6SM SCT090 BKN200

Example: see airport list